TimeEDT,TemperatureF,Dew PointF,Humidity,Sea Level PressureIn,VisibilityMPH,Wind Direction,Wind SpeedMPH,Gust SpeedMPH,PrecipitationIn,Events,Conditions,WindDirDegrees,DateUTC
12:53 AM,70.0,68.0,93,30.01,10.0,Calm,Calm,-,N/A,,Clear,0,2012-09-29 04:53:00
1:53 AM,69.1,68.0,96,30.00,9.0,Calm,Calm,-,N/A,,Clear,0,2012-09-29 05:53:00
2:53 AM,70.0,69.1,97,30.00,10.0,Calm,Calm,-,N/A,,Clear,0,2012-09-29 06:53:00
3:20 AM,69.8,68.0,94,30.00,8.0,Calm,Calm,-,N/A,,Partly Cloudy,0,2012-09-29 07:20:00
3:28 AM,68.0,66.2,94,29.99,1.8,Calm,Calm,-,N/A,,Mostly Cloudy,0,2012-09-29 07:28:00
3:45 AM,68.0,66.2,94,29.99,3.0,Calm,Calm,-,N/A,,Mostly Cloudy,0,2012-09-29 07:45:00
3:53 AM,69.1,68.0,96,29.98,10.0,Calm,Calm,-,N/A,,Mostly Cloudy,0,2012-09-29 07:53:00
4:04 AM,68.0,66.2,94,29.98,4.0,Calm,Calm,-,N/A,,Mostly Cloudy,0,2012-09-29 08:04:00
4:14 AM,68.0,66.2,94,29.98,6.0,Calm,Calm,-,N/A,,Mostly Cloudy,0,2012-09-29 08:14:00
4:23 AM,69.8,68.0,94,29.98,10.0,Calm,Calm,-,N/A,,Scattered Clouds,0,2012-09-29 08:23:00
4:43 AM,68.0,66.2,94,29.98,3.0,Calm,Calm,-,N/A,,Mostly Cloudy,0,2012-09-29 08:43:00
4:49 AM,68.0,66.2,94,29.98,1.8,Calm,Calm,-,N/A,,Mostly Cloudy,0,2012-09-29 08:49:00
4:50 AM,68.0,66.9,96,29.97,1.5,Calm,Calm,-,N/A,,Mostly Cloudy,0,2012-09-29 08:50:00
5:01 AM,69.8,68.0,94,29.98,0.5,Calm,Calm,-,N/A,Fog,Fog,0,2012-09-29 09:01:00
5:15 AM,68.0,68.0,100,29.99,2.0,Calm,Calm,-,N/A,,Overcast,0,2012-09-29 09:15:00
5:24 AM,68.0,66.2,94,29.99,0.8,Calm,Calm,-,N/A,,Overcast,0,2012-09-29 09:24:00
5:39 AM,68.0,68.0,100,29.98,0.2,Calm,Calm,-,N/A,Fog,Fog,0,2012-09-29 09:39:00
5:53 AM,69.1,68.0,96,29.98,0.2,Calm,Calm,-,N/A,Fog,Fog,0,2012-09-29 09:53:00
6:14 AM,69.8,68.0,94,29.99,0.5,Calm,Calm,-,N/A,Fog,Fog,0,2012-09-29 10:14:00
6:34 AM,69.8,68.0,94,29.99,0.2,Calm,Calm,-,N/A,Fog,Fog,0,2012-09-29 10:34:00
6:53 AM,69.1,68.0,96,29.98,0.2,Calm,Calm,-,N/A,Fog,Fog,0,2012-09-29 10:53:00
7:51 AM,69.8,68.0,94,29.99,0.5,Calm,Calm,-,N/A,Fog,Fog,0,2012-09-29 11:51:00
7:53 AM,69.1,68.0,96,29.99,0.8,Calm,Calm,-,N/A,,Overcast,0,2012-09-29 11:53:00
8:15 AM,69.8,69.8,100,30.00,0.2,Calm,Calm,-,N/A,Fog,Fog,0,2012-09-29 12:15:00
8:23 AM,69.8,69.8,100,30.01,0.2,Calm,Calm,-,N/A,Fog,Fog,0,2012-09-29 12:23:00
8:28 AM,71.6,69.8,94,30.01,1.0,Calm,Calm,-,N/A,,Mist,0,2012-09-29 12:28:00
8:31 AM,71.6,69.8,94,30.01,4.0,Calm,Calm,-,N/A,,Overcast,0,2012-09-29 12:31:00
8:53 AM,72.0,71.1,97,30.00,9.0,Calm,Calm,-,N/A,,Mostly Cloudy,0,2012-09-29 12:53:00
9:09 AM,73.4,71.6,94,30.01,10.0,Calm,Calm,-,N/A,,Scattered Clouds,0,2012-09-29 13:09:00
9:53 AM,79.0,73.9,84,30.00,10.0,ENE,4.6,-,N/A,,Clear,60,2012-09-29 13:53:00
10:53 AM,82.9,72.0,69,30.01,10.0,NE,3.5,-,N/A,,Clear,50,2012-09-29 14:53:00
11:53 AM,84.9,69.1,59,30.00,10.0,Variable,4.6,-,N/A,,Scattered Clouds,0,2012-09-29 15:53:00
12:53 PM,84.9,66.9,55,29.97,10.0,ESE,6.9,-,N/A,,Partly Cloudy,110,2012-09-29 16:53:00
1:53 PM,87.1,66.9,51,29.94,10.0,Variable,4.6,-,N/A,,Mostly Cloudy,0,2012-09-29 17:53:00
2:53 PM,88.0,66.0,48,29.91,10.0,SSE,8.1,-,N/A,,Scattered Clouds,150,2012-09-29 18:53:00
3:53 PM,88.0,64.0,45,29.88,10.0,South,5.8,-,N/A,,Clear,170,2012-09-29 19:53:00
4:53 PM,88.0,63.0,43,29.87,10.0,Calm,Calm,-,N/A,,Clear,0,2012-09-29 20:53:00
5:53 PM,86.0,64.9,49,29.86,10.0,SSE,5.8,-,N/A,,Partly Cloudy,160,2012-09-29 21:53:00
6:53 PM,82.9,68.0,60,29.88,10.0,Calm,Calm,-,N/A,,Clear,0,2012-09-29 22:53:00
7:53 PM,79.0,70.0,74,29.88,10.0,Calm,Calm,-,N/A,,Clear,0,2012-09-29 23:53:00
8:53 PM,77.0,70.0,79,29.89,10.0,East,3.5,-,N/A,,Clear,100,2012-09-30 00:53:00
9:53 PM,77.0,71.1,82,29.91,10.0,Calm,Calm,-,N/A,,Clear,0,2012-09-30 01:53:00
10:53 PM,75.9,71.1,85,29.92,10.0,Calm,Calm,-,N/A,,Clear,0,2012-09-30 02:53:00
11:53 PM,73.9,71.1,91,29.93,10.0,Calm,Calm,-,N/A,,Clear,0,2012-09-30 03:53:00